Coventry, United Kingdom

2:12 PM BST on August 21, 2014 (GMT +0100)
Coventry | Change Station
CLOSE
Current Station
Airport
Location: Coventry,
Elevation: 269 ft
Nearby Weather Stations

Elev 269 ft 52.37 °N, 1.48 °W | Updated 22 minutes ago

Scattered Clouds
Scattered Clouds
61 °F
Feels Like 61 °F
N
14
Wind Variable Wind from SW
Gusts 25 mph

Today
High -- | Low -- °F
--% Chance of Precip.
Yesterday
High -- | Low -- °F
Precip. -- in
5:58 AM 8:18 PM
Waning Crescent, 14% visible
Pressure 29.92 in
Visibility 6.2 miles
Clouds Few 3000 ft
Scattered Clouds 3900 ft
Dew Point 48 °F
Humidity 63%
Rainfall 0.00 in
Snow Depth Not available.
UV 6 out of 12
Pollen Not available.
Air Quality Not available.
Flu Activity Not available.
METAR EGBE 211250Z 22012G22KT 190V250 9999 FEW030 SCT039 16/09 Q1013

More Conditions Fewer Conditions

Pressure 29.92 in
Visibility 6.2 miles
Clouds Few 3000 ft
Scattered Clouds 3900 ft
Dew Point 48 °F
Humidity 63%
Rainfall 0.00 in
Snow Depth Not available.
UV 6 out of 12
Pollen Not available.
Air Quality Not available.
Flu Activity Not available.
METAR EGBE 211250Z 22012G22KT 190V250 9999 FEW030 SCT039 16/09 Q1013

More Conditions Fewer Conditions

10-Day Weather Forecast

Almanac

Astronomy

Aug. 21, 2014 Rise Set
Actual Time 5:58 AM BST 8:18 PM BST
Civil Twilight 5:21 AM BST 8:55 PM BST
Nautical Twilight 4:33 AM BST 9:42 PM BST
Astronomical Twilight 3:37 AM BST 10:38 PM BST
Moon 2:02 AM BST 5:48 PM BST
Length of Visible Light 15h 34m
Length of Day
14h 20m
Tomorrow will be 3m 50s shorter.
Waning Crescent, 14% of the Moon is Illuminated
Today
Waning Crescent
Aug 25
New
Sep 2
First Quarter
Sep 8
Full
Sep 15
Last Quarter

Yesterday's Extremes

Country Highs Country Lows

Community

WunderPhotos

Upload Photos

1,745,916 photos uploaded!

WunderBlogs® & News

By Dr. Jeff Masters
Director of Meteorology, Weather Underground
By Kari Strenfel
Meteorologist, Weather Underground
By Christopher C. Burt
Weather Historian, Weather Underground
August 21, 2014
August 21, 2014
August 21, 2014

Nearby

Snow Depth

Not available.

Earthquake Activity

City Distance Mag. Time & Date
No recent earthquake activity has been reported nearby.
Minimum magnitude displayed is 2.5.

Coastal Water Temperatures

Place Temperature
No Stations Reporting

Nearby Weather Stations